createdAt,value
2023-05-10T00:00:20.693Z,505.00
2023-05-10T00:01:20.698Z,503.00
2023-05-10T00:02:20.743Z,505.00
2023-05-10T00:03:20.798Z,504.00
2023-05-10T00:04:20.818Z,503.00
2023-05-10T00:05:20.741Z,507.00
2023-05-10T00:06:20.694Z,506.00
2023-05-10T00:07:20.711Z,503.00
2023-05-10T00:08:20.697Z,503.00
2023-05-10T00:09:20.711Z,504.00
2023-05-10T00:10:20.686Z,503.00
2023-05-10T00:11:22.883Z,505.00
2023-05-10T00:12:20.724Z,503.00
2023-05-10T00:13:20.762Z,503.00
2023-05-10T00:14:20.662Z,503.00
2023-05-10T00:15:20.688Z,503.00
2023-05-10T00:16:20.752Z,501.00
2023-05-10T00:17:20.711Z,501.00
2023-05-10T00:18:20.667Z,502.00
2023-05-10T00:19:20.687Z,501.00
2023-05-10T00:20:20.684Z,501.00
2023-05-10T00:21:20.724Z,502.00
2023-05-10T00:22:20.661Z,504.00
2023-05-10T00:23:20.707Z,505.00
2023-05-10T00:24:20.698Z,505.00
2023-05-10T00:25:20.672Z,504.00
2023-05-10T00:26:20.660Z,503.00
2023-05-10T00:27:20.649Z,504.00
2023-05-10T00:28:20.714Z,501.00
2023-05-10T00:29:20.660Z,500.00
2023-05-10T00:30:20.676Z,501.00
2023-05-10T00:31:20.651Z,500.00
2023-05-10T00:32:20.819Z,501.00
2023-05-10T00:33:20.671Z,501.00
2023-05-10T00:34:20.646Z,502.00
2023-05-10T00:35:20.661Z,500.00
2023-05-10T00:36:20.677Z,502.00
2023-05-10T00:37:20.640Z,501.00
2023-05-10T00:38:20.671Z,501.00
2023-05-10T00:39:20.672Z,500.00
2023-05-10T00:40:20.689Z,501.00
2023-05-10T00:41:21.606Z,501.00
2023-05-10T00:42:20.680Z,502.00
2023-05-10T00:43:20.653Z,500.00
2023-05-10T00:44:20.666Z,502.00
2023-05-10T00:45:20.667Z,502.00
2023-05-10T00:46:20.659Z,497.00
2023-05-10T00:47:20.699Z,495.00
2023-05-10T00:48:20.650Z,496.00
2023-05-10T00:49:20.640Z,495.00
2023-05-10T00:50:20.642Z,495.00
2023-05-10T00:51:20.669Z,496.00
2023-05-10T00:52:20.691Z,495.00
2023-05-10T00:53:20.673Z,493.00
2023-05-10T00:54:20.675Z,492.00
2023-05-10T00:55:20.641Z,492.00
2023-05-10T00:56:20.655Z,493.00
2023-05-10T00:57:20.627Z,494.00
2023-05-10T00:58:20.657Z,494.00
2023-05-10T00:59:20.644Z,493.00
2023-05-10T01:00:20.630Z,493.00
2023-05-10T01:01:20.674Z,494.00
2023-05-10T01:02:20.702Z,493.00
2023-05-10T01:03:20.780Z,492.00
2023-05-10T01:04:20.696Z,490.00
2023-05-10T01:05:20.822Z,491.00
2023-05-10T01:06:20.647Z,490.00
2023-05-10T01:07:20.668Z,488.00
2023-05-10T01:08:20.694Z,489.00
2023-05-10T01:09:20.676Z,489.00
2023-05-10T01:10:20.657Z,489.00
2023-05-10T01:11:20.671Z,488.00
2023-05-10T01:12:20.701Z,491.00
2023-05-10T01:13:20.741Z,491.00
2023-05-10T01:14:20.642Z,492.00
2023-05-10T01:15:20.666Z,494.00
2023-05-10T01:16:20.709Z,491.00
2023-05-10T01:17:20.673Z,492.00
2023-05-10T01:18:20.660Z,496.00
2023-05-10T01:19:20.661Z,496.00
2023-05-10T01:20:20.666Z,498.00
2023-05-10T01:21:20.655Z,497.00
2023-05-10T01:22:20.672Z,498.00
2023-05-10T01:23:20.671Z,495.00
2023-05-10T01:24:20.684Z,495.00
2023-05-10T01:25:20.693Z,496.00
2023-05-10T01:26:20.696Z,499.00
2023-05-10T01:27:20.675Z,497.00
2023-05-10T01:28:20.664Z,496.00
2023-05-10T01:29:20.657Z,496.00
2023-05-10T01:31:20.800Z,499.00
2023-05-10T01:32:20.677Z,503.00
2023-05-10T01:33:20.703Z,506.00
2023-05-10T01:34:20.679Z,504.00
2023-05-10T01:35:20.688Z,504.00
2023-05-10T01:36:20.713Z,505.00
2023-05-10T01:37:20.681Z,505.00
2023-05-10T01:38:20.664Z,506.00
2023-05-10T01:39:20.687Z,503.00
2023-05-10T01:40:20.675Z,502.00
2023-05-10T01:41:20.702Z,500.00
2023-05-10T01:42:20.701Z,499.00
2023-05-10T01:43:20.807Z,498.00
2023-05-10T01:44:20.675Z,497.00
2023-05-10T01:45:20.732Z,498.00
2023-05-10T01:46:20.678Z,498.00
2023-05-10T01:47:20.677Z,496.00
2023-05-10T01:48:20.701Z,495.00
2023-05-10T01:49:20.664Z,496.00
2023-05-10T01:50:20.717Z,493.00
2023-05-10T01:51:20.668Z,494.00
2023-05-10T01:52:20.727Z,494.00
2023-05-10T01:53:20.694Z,494.00
2023-05-10T01:54:20.681Z,492.00
2023-05-10T01:55:20.691Z,489.00
2023-05-10T01:56:20.689Z,490.00
2023-05-10T01:57:20.690Z,489.00
2023-05-10T01:58:20.687Z,488.00
2023-05-10T01:59:20.725Z,489.00
2023-05-10T02:00:20.681Z,489.00
2023-05-10T02:01:20.773Z,487.00
2023-05-10T02:02:20.667Z,486.00
2023-05-10T02:03:20.736Z,486.00
2023-05-10T02:04:20.635Z,488.00
2023-05-10T02:05:20.648Z,489.00
2023-05-10T02:06:20.638Z,490.00
2023-05-10T02:07:20.642Z,492.00
2023-05-10T02:08:20.682Z,491.00
2023-05-10T02:09:20.663Z,492.00
2023-05-10T02:10:20.683Z,492.00
2023-05-10T02:11:20.657Z,493.00
2023-05-10T02:12:20.653Z,496.00
2023-05-10T02:13:20.751Z,497.00
2023-05-10T02:14:20.688Z,496.00
2023-05-10T02:15:20.662Z,496.00
2023-05-10T02:16:20.696Z,494.00
2023-05-10T02:17:20.636Z,493.00
2023-05-10T02:18:20.667Z,495.00
2023-05-10T02:19:20.672Z,496.00
2023-05-10T02:20:20.685Z,498.00
2023-05-10T02:21:20.649Z,500.00
2023-05-10T02:22:20.634Z,500.00
2023-05-10T02:23:20.657Z,499.00
2023-05-10T02:24:20.650Z,498.00
2023-05-10T02:25:20.653Z,498.00
2023-05-10T02:26:20.652Z,498.00
2023-05-10T02:27:20.645Z,498.00
2023-05-10T02:28:20.662Z,497.00
2023-05-10T02:29:20.740Z,496.00
2023-05-10T02:30:20.672Z,494.00
2023-05-10T02:31:20.704Z,492.00
2023-05-10T02:32:20.652Z,494.00
2023-05-10T02:33:20.653Z,494.00
2023-05-10T02:34:20.664Z,492.00
2023-05-10T02:35:20.698Z,490.00
2023-05-10T02:36:20.684Z,491.00
2023-05-10T02:37:20.681Z,493.00
2023-05-10T02:38:20.682Z,492.00
2023-05-10T02:39:20.670Z,493.00
2023-05-10T02:40:20.633Z,493.00
2023-05-10T02:41:20.640Z,493.00
2023-05-10T02:42:20.674Z,492.00
2023-05-10T02:43:20.645Z,492.00
2023-05-10T02:44:20.703Z,489.00
2023-05-10T02:45:20.656Z,488.00
2023-05-10T02:46:20.764Z,488.00
2023-05-10T02:47:20.714Z,488.00
2023-05-10T02:48:20.749Z,489.00
2023-05-10T02:49:20.700Z,489.00
2023-05-10T02:50:20.701Z,493.00
2023-05-10T02:51:20.701Z,493.00
2023-05-10T02:52:20.720Z,495.00
2023-05-10T02:53:20.711Z,496.00
2023-05-10T02:54:20.700Z,495.00
2023-05-10T02:55:20.712Z,494.00
2023-05-10T02:56:20.681Z,491.00
2023-05-10T02:57:20.707Z,491.00
2023-05-10T02:58:20.698Z,490.00
2023-05-10T02:59:20.722Z,488.00
2023-05-10T03:00:20.720Z,486.00
2023-05-10T03:01:20.772Z,486.00
2023-05-10T03:02:20.734Z,487.00
2023-05-10T03:03:20.731Z,489.00
2023-05-10T03:04:20.709Z,489.00
2023-05-10T03:05:20.742Z,490.00
2023-05-10T03:06:20.722Z,491.00
2023-05-10T03:07:20.715Z,492.00
2023-05-10T03:08:20.740Z,490.00
2023-05-10T03:09:20.709Z,490.00
2023-05-10T03:10:20.714Z,489.00
2023-05-10T03:11:20.726Z,489.00
2023-05-10T03:12:20.735Z,487.00
2023-05-10T03:13:20.795Z,487.00
2023-05-10T03:14:20.731Z,486.00
2023-05-10T03:15:20.756Z,484.00
2023-05-10T03:16:20.750Z,485.00
2023-05-10T03:17:20.740Z,483.00
2023-05-10T03:18:20.740Z,485.00
2023-05-10T03:19:20.727Z,487.00
2023-05-10T03:20:20.730Z,490.00
2023-05-10T03:21:20.753Z,487.00
2023-05-10T03:22:20.708Z,484.00
2023-05-10T03:23:20.711Z,486.00
2023-05-10T03:24:20.702Z,484.00
2023-05-10T03:25:20.752Z,481.00
2023-05-10T03:26:20.713Z,481.00
2023-05-10T03:27:20.738Z,483.00
2023-05-10T03:28:20.745Z,485.00
2023-05-10T03:29:20.718Z,483.00
2023-05-10T03:30:20.762Z,487.00
2023-05-10T03:31:20.743Z,486.00
2023-05-10T03:32:20.776Z,485.00
2023-05-10T03:33:20.745Z,486.00
2023-05-10T03:34:20.703Z,484.00
2023-05-10T03:35:20.773Z,486.00
2023-05-10T03:36:20.741Z,485.00
2023-05-10T03:37:20.766Z,488.00
2023-05-10T03:38:20.758Z,487.00
2023-05-10T03:39:20.730Z,487.00
2023-05-10T03:40:20.741Z,488.00
2023-05-10T03:41:20.727Z,490.00
2023-05-10T03:42:20.747Z,491.00
2023-05-10T03:43:20.736Z,490.00
2023-05-10T03:44:20.706Z,489.00
2023-05-10T03:45:20.704Z,487.00
2023-05-10T03:46:20.743Z,487.00
2023-05-10T03:47:20.748Z,488.00
2023-05-10T03:48:20.711Z,487.00
2023-05-10T03:49:20.706Z,488.00
2023-05-10T03:50:20.695Z,488.00
2023-05-10T03:51:20.709Z,490.00
2023-05-10T03:52:20.715Z,492.00
2023-05-10T03:53:20.707Z,493.00
2023-05-10T03:54:20.710Z,490.00
2023-05-10T03:55:20.725Z,489.00
2023-05-10T03:56:20.689Z,491.00
2023-05-10T03:57:20.687Z,492.00
2023-05-10T03:58:20.688Z,491.00
2023-05-10T03:59:20.701Z,490.00
2023-05-10T04:00:20.686Z,488.00
2023-05-10T04:01:20.717Z,489.00
2023-05-10T04:02:20.807Z,489.00
2023-05-10T04:03:20.801Z,490.00
2023-05-10T04:04:20.749Z,489.00
2023-05-10T04:05:20.680Z,487.00
2023-05-10T04:06:20.767Z,487.00
2023-05-10T04:07:20.678Z,487.00
2023-05-10T04:08:20.673Z,486.00
2023-05-10T04:09:20.669Z,486.00
2023-05-10T04:10:20.665Z,486.00
2023-05-10T04:11:20.652Z,484.00
2023-05-10T04:12:20.659Z,486.00
2023-05-10T04:13:20.791Z,487.00
2023-05-10T04:14:20.665Z,484.00
2023-05-10T04:15:20.662Z,485.00
2023-05-10T04:16:20.700Z,486.00
2023-05-10T04:17:20.693Z,489.00
2023-05-10T04:18:20.627Z,488.00
2023-05-10T04:19:20.621Z,491.00
2023-05-10T04:20:20.651Z,490.00
2023-05-10T04:21:20.642Z,490.00
2023-05-10T04:22:20.636Z,487.00
2023-05-10T04:23:20.670Z,486.00
2023-05-10T04:24:20.608Z,488.00
2023-05-10T04:25:20.676Z,488.00
2023-05-10T04:26:20.640Z,487.00
2023-05-10T04:27:20.623Z,487.00
2023-05-10T04:28:20.616Z,485.00
2023-05-10T04:29:20.623Z,486.00
2023-05-10T04:30:20.645Z,486.00
2023-05-10T04:31:20.727Z,486.00
2023-05-10T04:32:20.639Z,485.00
2023-05-10T04:33:20.646Z,486.00
2023-05-10T04:34:20.621Z,484.00
2023-05-10T04:35:20.645Z,484.00
2023-05-10T04:36:20.657Z,485.00
2023-05-10T04:37:20.606Z,486.00
2023-05-10T04:38:20.631Z,484.00
2023-05-10T04:39:20.630Z,485.00
2023-05-10T04:40:20.596Z,485.00
2023-05-10T04:41:20.586Z,483.00
2023-05-10T04:42:20.603Z,485.00
2023-05-10T04:43:20.660Z,485.00
2023-05-10T04:44:20.589Z,485.00
2023-05-10T04:45:20.595Z,485.00
2023-05-10T04:46:20.659Z,488.00
2023-05-10T04:47:20.642Z,488.00
2023-05-10T04:48:20.587Z,485.00
2023-05-10T04:49:20.602Z,484.00
2023-05-10T04:50:20.600Z,484.00
2023-05-10T04:51:20.587Z,484.00
2023-05-10T04:52:20.584Z,485.00
2023-05-10T04:53:20.592Z,486.00
2023-05-10T04:54:20.596Z,486.00
2023-05-10T04:55:20.734Z,486.00
2023-05-10T04:56:20.619Z,488.00
2023-05-10T04:57:20.609Z,489.00
2023-05-10T04:58:20.624Z,489.00
2023-05-10T04:59:20.620Z,486.00
2023-05-10T05:00:20.604Z,488.00
2023-05-10T05:01:20.640Z,485.00
2023-05-10T05:02:20.642Z,485.00
2023-05-10T05:03:20.754Z,487.00
2023-05-10T05:04:20.587Z,489.00
2023-05-10T05:05:20.595Z,489.00
2023-05-10T05:06:20.644Z,489.00
2023-05-10T05:07:20.588Z,490.00
2023-05-10T05:08:20.659Z,489.00
2023-05-10T05:09:20.608Z,490.00
2023-05-10T05:10:20.670Z,490.00
2023-05-10T05:11:20.598Z,489.00
2023-05-10T05:12:20.592Z,489.00
2023-05-10T05:13:20.654Z,487.00
2023-05-10T05:14:20.610Z,486.00
2023-05-10T05:15:20.605Z,487.00
2023-05-10T05:16:20.669Z,486.00
2023-05-10T05:17:20.616Z,487.00
2023-05-10T05:18:20.628Z,487.00
2023-05-10T05:19:20.624Z,487.00
2023-05-10T05:20:20.656Z,487.00
2023-05-10T05:21:20.599Z,484.00
2023-05-10T05:22:20.614Z,482.00
2023-05-10T05:23:20.583Z,482.00
2023-05-10T05:24:20.608Z,482.00
2023-05-10T05:25:20.624Z,484.00
2023-05-10T05:26:20.591Z,484.00
2023-05-10T05:27:20.576Z,483.00
2023-05-10T05:28:20.598Z,484.00
2023-05-10T05:29:20.610Z,482.00
2023-05-10T05:30:20.561Z,483.00
2023-05-10T05:31:20.613Z,484.00
2023-05-10T05:32:20.570Z,483.00
2023-05-10T05:33:20.554Z,491.00
2023-05-10T05:34:20.774Z,503.00
2023-05-10T05:35:20.582Z,518.00
2023-05-10T05:36:21.264Z,540.00
2023-05-10T05:37:20.585Z,556.00
2023-05-10T05:38:20.602Z,563.00
2023-05-10T05:39:20.729Z,576.00
2023-05-10T05:40:20.661Z,667.00
2023-05-10T05:41:20.685Z,684.00
2023-05-10T05:42:20.682Z,668.00
2023-05-10T05:43:20.727Z,629.00
2023-05-10T05:44:20.750Z,641.00
2023-05-10T05:45:20.786Z,689.00
2023-05-10T05:46:27.846Z,650.00
2023-05-10T05:47:20.759Z,661.00
2023-05-10T05:48:20.749Z,743.00
2023-05-10T05:49:20.892Z,715.00
2023-05-10T05:50:20.744Z,732.00
2023-05-10T05:51:20.774Z,750.00
2023-05-10T05:52:20.737Z,681.00
2023-05-10T05:53:20.746Z,721.00
2023-05-10T05:54:20.804Z,773.00
2023-05-10T05:55:20.774Z,703.00
2023-05-10T05:56:20.729Z,685.00
2023-05-10T05:57:20.729Z,678.00
2023-05-10T05:58:20.736Z,678.00
2023-05-10T05:59:20.785Z,669.00
2023-05-10T06:00:20.705Z,668.00
2023-05-10T06:01:20.654Z,665.00
2023-05-10T06:02:20.744Z,660.00
2023-05-10T06:03:20.989Z,655.00
2023-05-10T06:04:20.713Z,651.00
2023-05-10T06:05:20.660Z,636.00
2023-05-10T06:06:20.708Z,631.00
2023-05-10T06:07:20.655Z,639.00
2023-05-10T06:08:20.637Z,638.00
2023-05-10T06:09:20.798Z,632.00
2023-05-10T06:10:20.624Z,628.00
2023-05-10T06:11:20.618Z,621.00
2023-05-10T06:12:20.602Z,612.00
2023-05-10T06:13:20.651Z,613.00
2023-05-10T06:14:20.641Z,608.00
2023-05-10T06:15:20.599Z,603.00
2023-05-10T06:16:20.581Z,601.00
2023-05-10T06:17:20.619Z,593.00
2023-05-10T06:18:20.612Z,591.00
2023-05-10T06:19:20.567Z,584.00
2023-05-10T06:20:20.585Z,577.00
2023-05-10T06:21:20.537Z,574.00
2023-05-10T06:22:20.543Z,570.00
2023-05-10T06:23:20.508Z,569.00
2023-05-10T06:24:20.566Z,565.00
2023-05-10T06:25:20.564Z,564.00
2023-05-10T06:26:20.524Z,561.00
2023-05-10T06:27:20.517Z,557.00
2023-05-10T06:28:20.525Z,554.00
2023-05-10T06:29:20.534Z,554.00
2023-05-10T06:30:20.611Z,552.00
2023-05-10T06:31:20.726Z,552.00
2023-05-10T06:32:20.661Z,550.00
2023-05-10T06:33:20.679Z,546.00
2023-05-10T06:34:20.735Z,543.00
2023-05-10T06:35:20.740Z,541.00
2023-05-10T06:36:20.736Z,536.00
2023-05-10T06:37:20.797Z,532.00
2023-05-10T06:38:20.859Z,525.00
2023-05-10T06:39:20.869Z,524.00
2023-05-10T06:40:20.906Z,522.00
2023-05-10T06:41:22.529Z,517.00
2023-05-10T06:42:20.936Z,511.00
2023-05-10T06:43:20.893Z,507.00
2023-05-10T06:44:20.897Z,504.00
2023-05-10T06:45:21.113Z,501.00
2023-05-10T06:46:20.953Z,498.00
2023-05-10T06:47:20.884Z,501.00
2023-05-10T06:48:20.920Z,497.00
2023-05-10T06:49:20.873Z,496.00
2023-05-10T06:50:20.865Z,493.00
2023-05-10T06:51:20.846Z,490.00
2023-05-10T06:52:20.856Z,490.00
2023-05-10T06:53:20.860Z,492.00
2023-05-10T06:54:20.862Z,492.00
2023-05-10T06:55:20.827Z,493.00
2023-05-10T06:56:20.826Z,495.00
2023-05-10T06:57:31.128Z,496.00
2023-05-10T06:58:21.812Z,495.00
2023-05-10T06:59:21.406Z,492.00
2023-05-10T07:00:21.199Z,494.00
2023-05-10T07:01:20.857Z,490.00
2023-05-10T07:02:21.060Z,487.00
2023-05-10T07:03:20.795Z,483.00
2023-05-10T07:04:20.789Z,482.00
2023-05-10T07:05:21.142Z,480.00
2023-05-10T07:06:32.278Z,479.00
2023-05-10T07:07:21.771Z,479.00
2023-05-10T07:08:20.757Z,479.00
2023-05-10T07:09:20.703Z,480.00
2023-05-10T07:10:20.790Z,481.00
2023-05-10T07:11:20.727Z,477.00
2023-05-10T07:12:20.767Z,475.00
2023-05-10T07:13:20.794Z,475.00
2023-05-10T07:14:20.743Z,475.00
2023-05-10T07:15:20.704Z,478.00
2023-05-10T07:16:20.790Z,476.00
2023-05-10T07:17:20.685Z,474.00
2023-05-10T07:18:20.674Z,476.00
2023-05-10T07:19:20.758Z,471.00
2023-05-10T07:20:20.823Z,475.00
2023-05-10T07:21:20.682Z,476.00
2023-05-10T07:22:21.386Z,480.00
2023-05-10T07:23:20.690Z,482.00
2023-05-10T07:24:20.751Z,482.00
2023-05-10T07:25:20.786Z,481.00
2023-05-10T07:26:20.790Z,479.00
2023-05-10T07:27:20.831Z,479.00
2023-05-10T07:28:20.893Z,477.00
2023-05-10T07:29:20.909Z,473.00
2023-05-10T07:30:21.336Z,471.00
2023-05-10T07:31:21.010Z,479.00
2023-05-10T07:32:21.851Z,477.00
2023-05-10T07:33:21.050Z,475.00
2023-05-10T07:34:21.043Z,477.00
2023-05-10T07:35:21.324Z,476.00
2023-05-10T07:36:21.098Z,479.00
2023-05-10T07:37:21.147Z,479.00
2023-05-10T07:38:21.162Z,479.00
2023-05-10T07:39:26.685Z,474.00
2023-05-10T07:40:22.229Z,473.00
2023-05-10T07:41:21.203Z,477.00
2023-05-10T07:42:21.181Z,478.00
2023-05-10T07:43:21.185Z,479.00
2023-05-10T07:44:21.196Z,479.00
2023-05-10T07:45:21.169Z,487.00
2023-05-10T07:46:21.180Z,514.00
2023-05-10T07:47:21.188Z,516.00
2023-05-10T07:48:21.140Z,518.00
2023-05-10T07:49:21.171Z,515.00
2023-05-10T07:50:21.165Z,515.00
2023-05-10T07:51:21.147Z,517.00
2023-05-10T07:52:22.652Z,519.00
2023-05-10T07:53:21.083Z,518.00
2023-05-10T07:54:21.093Z,524.00
2023-05-10T07:55:21.116Z,524.00
2023-05-10T07:56:21.182Z,524.00
2023-05-10T07:57:21.180Z,526.00
2023-05-10T07:58:21.231Z,533.00
2023-05-10T07:59:21.248Z,534.00
2023-05-10T08:00:21.370Z,525.00
2023-05-10T08:01:21.288Z,523.00
2023-05-10T08:02:21.395Z,523.00
2023-05-10T08:03:21.452Z,518.00
2023-05-10T08:04:21.380Z,512.00
2023-05-10T08:05:21.443Z,508.00
2023-05-10T08:06:21.527Z,515.00
2023-05-10T08:07:21.493Z,513.00
2023-05-10T08:08:21.558Z,511.00
2023-05-10T08:09:21.559Z,506.00
2023-05-10T08:10:21.665Z,500.00
2023-05-10T08:11:21.614Z,494.00
2023-05-10T08:12:21.627Z,487.00
2023-05-10T08:13:21.701Z,480.00
2023-05-10T08:14:21.702Z,478.00
2023-05-10T08:15:21.746Z,478.00
2023-05-10T08:16:21.783Z,475.00
2023-05-10T08:17:22.833Z,474.00
2023-05-10T08:18:22.208Z,470.00
2023-05-10T08:19:21.781Z,468.00
2023-05-10T08:20:21.952Z,468.00
2023-05-10T08:21:21.760Z,467.00
2023-05-10T08:22:21.755Z,468.00
2023-05-10T08:23:21.752Z,473.00
2023-05-10T08:24:21.767Z,476.00
2023-05-10T08:25:21.746Z,475.00
2023-05-10T08:26:21.748Z,473.00
2023-05-10T08:27:21.789Z,471.00
2023-05-10T08:28:21.730Z,468.00
2023-05-10T08:29:21.721Z,472.00
2023-05-10T08:30:22.037Z,484.00
2023-05-10T08:31:21.747Z,508.00
2023-05-10T08:32:21.729Z,525.00
2023-05-10T08:33:21.732Z,623.00
2023-05-10T08:34:21.783Z,549.00
2023-05-10T08:35:21.817Z,574.00
2023-05-10T08:36:21.657Z,625.00
2023-05-10T08:37:21.674Z,661.00
2023-05-10T08:38:21.655Z,760.00
2023-05-10T08:39:29.792Z,784.00
2023-05-10T08:40:22.973Z,803.00
2023-05-10T08:41:21.693Z,880.00
2023-05-10T08:42:21.737Z,911.00
2023-05-10T08:43:21.645Z,944.00
2023-05-10T08:44:21.610Z,1050.00
2023-05-10T08:45:21.865Z,1088.00
2023-05-10T08:46:21.799Z,953.00
2023-05-10T08:47:21.763Z,821.00
2023-05-10T08:48:21.686Z,877.00
2023-05-10T08:49:21.596Z,811.00
2023-05-10T08:50:21.625Z,804.00
2023-05-10T08:51:21.609Z,801.00
2023-05-10T08:52:21.648Z,767.00
2023-05-10T08:53:21.721Z,898.00
2023-05-10T08:54:21.824Z,840.00
2023-05-10T08:55:21.850Z,828.00
2023-05-10T08:56:21.843Z,834.00
2023-05-10T08:57:21.853Z,867.00
2023-05-10T08:58:21.906Z,884.00
2023-05-10T08:59:21.948Z,891.00
2023-05-10T09:00:21.925Z,896.00
2023-05-10T09:01:22.039Z,901.00
2023-05-10T09:02:21.965Z,899.00
2023-05-10T09:03:21.993Z,896.00
2023-05-10T09:04:22.213Z,890.00
2023-05-10T09:05:22.076Z,884.00
2023-05-10T09:06:22.378Z,859.00
2023-05-10T09:07:22.151Z,836.00
2023-05-10T09:08:22.192Z,855.00
2023-05-10T09:09:22.180Z,869.00
2023-05-10T09:10:22.246Z,881.00
2023-05-10T09:11:22.245Z,887.00
2023-05-10T09:12:22.292Z,894.00
2023-05-10T09:13:22.336Z,883.00
2023-05-10T09:14:22.290Z,893.00
2023-05-10T09:15:22.289Z,910.00
2023-05-10T09:16:22.687Z,922.00
2023-05-10T09:17:22.497Z,927.00
2023-05-10T09:18:22.411Z,926.00
2023-05-10T09:19:22.355Z,926.00
2023-05-10T09:20:22.424Z,928.00
2023-05-10T09:21:22.386Z,929.00
2023-05-10T09:22:22.358Z,933.00
2023-05-10T09:23:22.787Z,939.00
2023-05-10T09:24:22.357Z,943.00
2023-05-10T09:25:22.412Z,948.00
2023-05-10T09:26:22.899Z,952.00
2023-05-10T09:27:22.380Z,966.00
2023-05-10T09:28:22.392Z,970.00
2023-05-10T09:29:22.384Z,971.00
2023-05-10T09:30:22.401Z,971.00
2023-05-10T09:31:23.680Z,970.00
2023-05-10T09:32:22.465Z,976.00
2023-05-10T09:33:22.413Z,986.00
2023-05-10T09:34:22.429Z,992.00
2023-05-10T09:35:22.426Z,995.00
2023-05-10T09:36:22.393Z,984.00
2023-05-10T09:37:22.445Z,968.00
2023-05-10T09:38:22.432Z,965.00
2023-05-10T09:39:22.384Z,960.00
2023-05-10T09:40:22.396Z,961.00
2023-05-10T09:41:22.917Z,967.00
2023-05-10T09:42:22.393Z,969.00
2023-05-10T09:43:22.411Z,970.00
2023-05-10T09:44:22.440Z,973.00
2023-05-10T09:45:22.443Z,977.00
2023-05-10T09:46:22.484Z,979.00
2023-05-10T09:47:22.454Z,979.00
2023-05-10T09:48:22.433Z,982.00
2023-05-10T09:49:22.461Z,987.00
2023-05-10T09:50:22.455Z,989.00
2023-05-10T09:51:22.898Z,993.00
2023-05-10T09:52:22.505Z,991.00
2023-05-10T09:53:22.491Z,971.00
2023-05-10T09:54:22.549Z,953.00
2023-05-10T09:55:22.639Z,939.00
2023-05-10T09:56:22.909Z,854.00
2023-05-10T09:57:22.543Z,829.00
2023-05-10T09:58:22.539Z,740.00
2023-05-10T09:59:22.530Z,717.00
2023-05-10T10:00:22.555Z,726.00
2023-05-10T10:01:22.606Z,721.00
2023-05-10T10:02:22.600Z,722.00
2023-05-10T10:03:22.592Z,720.00
2023-05-10T10:04:22.693Z,720.00
2023-05-10T10:05:22.649Z,707.00
2023-05-10T10:06:29.587Z,711.00
2023-05-10T10:07:23.680Z,668.00
2023-05-10T10:08:22.661Z,675.00
2023-05-10T10:09:22.707Z,681.00
2023-05-10T10:10:22.623Z,686.00
2023-05-10T10:11:22.888Z,717.00
2023-05-10T10:12:22.614Z,713.00
2023-05-10T10:13:22.612Z,761.00
2023-05-10T10:14:22.595Z,735.00
2023-05-10T10:15:22.983Z,754.00
2023-05-10T10:16:23.034Z,795.00
2023-05-10T10:17:22.586Z,756.00
2023-05-10T10:18:22.610Z,749.00
2023-05-10T10:19:22.590Z,719.00
2023-05-10T10:20:22.547Z,725.00
2023-05-10T10:21:22.568Z,724.00
2023-05-10T10:22:22.542Z,715.00
2023-05-10T10:23:22.547Z,680.00
2023-05-10T10:24:22.525Z,681.00
2023-05-10T10:25:22.537Z,688.00
2023-05-10T10:26:22.910Z,705.00
2023-05-10T10:27:22.506Z,711.00
2023-05-10T10:28:22.515Z,713.00
2023-05-10T10:29:22.528Z,714.00
2023-05-10T10:30:22.485Z,709.00
2023-05-10T10:31:22.564Z,702.00
2023-05-10T10:32:22.561Z,688.00
2023-05-10T10:33:28.432Z,695.00
2023-05-10T10:34:23.509Z,703.00
2023-05-10T10:35:22.502Z,713.00
2023-05-10T10:36:23.014Z,731.00
2023-05-10T10:37:22.541Z,735.00
2023-05-10T10:38:22.482Z,673.00
2023-05-10T10:39:22.496Z,680.00
2023-05-10T10:40:22.491Z,679.00
2023-05-10T10:41:22.910Z,694.00
2023-05-10T10:42:22.433Z,697.00
2023-05-10T10:43:22.451Z,696.00
2023-05-10T10:44:22.423Z,691.00
2023-05-10T10:45:22.424Z,664.00
2023-05-10T10:46:22.503Z,656.00
2023-05-10T10:47:22.566Z,657.00
2023-05-10T10:48:23.488Z,669.00
2023-05-10T10:49:22.437Z,702.00
2023-05-10T10:50:22.954Z,754.00
2023-05-10T10:51:22.396Z,687.00
2023-05-10T10:52:22.501Z,684.00
2023-05-10T10:53:22.401Z,688.00
2023-05-10T10:54:22.354Z,674.00
2023-05-10T10:55:22.361Z,762.00
2023-05-10T10:56:22.395Z,777.00
2023-05-10T10:57:22.450Z,921.00
2023-05-10T10:58:22.384Z,898.00
2023-05-10T10:59:22.339Z,803.00
2023-05-10T11:00:22.349Z,773.00
2023-05-10T11:01:22.471Z,720.00
2023-05-10T11:02:22.357Z,719.00
2023-05-10T11:03:22.350Z,1126.00
2023-05-10T11:04:22.421Z,743.00
2023-05-10T11:05:22.413Z,752.00
2023-05-10T11:06:22.426Z,758.00
2023-05-10T11:07:22.998Z,751.00
2023-05-10T11:08:22.519Z,749.00
2023-05-10T11:09:22.528Z,734.00
2023-05-10T11:10:22.599Z,730.00
2023-05-10T11:11:22.585Z,699.00
2023-05-10T11:12:22.618Z,696.00
2023-05-10T11:13:22.663Z,693.00
2023-05-10T11:14:22.727Z,667.00
2023-05-10T11:15:22.749Z,669.00
2023-05-10T11:16:22.855Z,667.00
2023-05-10T11:17:22.786Z,657.00
2023-05-10T11:18:22.897Z,651.00
2023-05-10T11:19:22.882Z,638.00
2023-05-10T11:20:22.930Z,627.00
2023-05-10T11:21:22.945Z,617.00
2023-05-10T11:22:23.002Z,610.00
2023-05-10T11:23:23.087Z,599.00
2023-05-10T11:24:23.043Z,604.00
2023-05-10T11:25:23.941Z,597.00
2023-05-10T11:26:23.147Z,599.00
2023-05-10T11:27:23.452Z,607.00
2023-05-10T11:28:23.234Z,669.00
2023-05-10T11:29:23.174Z,675.00
2023-05-10T11:30:23.261Z,625.00
2023-05-10T11:31:23.318Z,646.00
2023-05-10T11:32:23.945Z,652.00
2023-05-10T11:33:23.310Z,659.00
2023-05-10T11:34:23.344Z,665.00
2023-05-10T11:35:23.400Z,665.00
2023-05-10T11:36:23.426Z,664.00
2023-05-10T11:37:23.946Z,667.00
2023-05-10T11:38:23.518Z,669.00
2023-05-10T11:39:23.570Z,671.00
2023-05-10T11:40:23.533Z,672.00
2023-05-10T11:41:23.591Z,670.00
2023-05-10T11:42:23.612Z,670.00
2023-05-10T11:43:23.606Z,670.00
2023-05-10T11:44:23.664Z,672.00
2023-05-10T11:45:23.662Z,673.00
2023-05-10T11:46:23.701Z,671.00
2023-05-10T11:47:23.725Z,671.00
2023-05-10T11:48:23.728Z,671.00
2023-05-10T11:49:23.753Z,670.00
2023-05-10T11:50:23.713Z,673.00
2023-05-10T11:51:23.772Z,675.00
2023-05-10T11:52:23.763Z,676.00
2023-05-10T11:53:25.777Z,677.00
2023-05-10T11:54:23.780Z,675.00
2023-05-10T11:55:23.779Z,672.00
2023-05-10T11:56:23.793Z,671.00
2023-05-10T11:57:23.858Z,666.00
2023-05-10T11:58:23.866Z,664.00
2023-05-10T11:59:23.844Z,664.00
2023-05-10T12:00:23.868Z,668.00
2023-05-10T12:01:23.828Z,668.00
2023-05-10T12:02:23.998Z,667.00
2023-05-10T12:03:24.011Z,664.00
2023-05-10T12:04:23.925Z,659.00
2023-05-10T12:05:23.914Z,660.00
2023-05-10T12:06:23.916Z,664.00
2023-05-10T12:07:23.958Z,662.00
2023-05-10T12:08:23.968Z,663.00
2023-05-10T12:10:23.947Z,662.00
2023-05-10T12:11:23.975Z,661.00
2023-05-10T12:12:23.975Z,663.00
2023-05-10T12:13:23.980Z,662.00
2023-05-10T12:14:23.929Z,662.00
2023-05-10T12:15:23.928Z,664.00
2023-05-10T12:16:23.930Z,666.00
2023-05-10T12:17:23.976Z,669.00
2023-05-10T12:18:23.930Z,664.00
2023-05-10T12:19:23.874Z,663.00
2023-05-10T12:20:23.900Z,662.00
2023-05-10T12:21:23.866Z,662.00
2023-05-10T12:22:23.861Z,659.00
2023-05-10T12:23:23.877Z,658.00
2023-05-10T12:24:23.831Z,661.00
2023-05-10T12:25:23.839Z,658.00
2023-05-10T12:26:23.852Z,656.00
2023-05-10T12:27:23.830Z,655.00
2023-05-10T12:28:23.864Z,652.00
2023-05-10T12:29:23.814Z,652.00
2023-05-10T12:30:23.788Z,652.00